createdAt,value
2023-03-22T00:00:30.286Z,-1.32
2023-03-22T00:02:36.031Z,-1.43
2023-03-22T00:04:42.007Z,-1.46
2023-03-22T00:06:47.767Z,-1.35
2023-03-22T00:08:53.464Z,-1.19
2023-03-22T00:10:59.011Z,-1.06
2023-03-22T00:13:06.919Z,-1
2023-03-22T00:15:12.418Z,-1.11
2023-03-22T00:17:18.098Z,-1.15
2023-03-22T00:21:45.186Z,-1.22
2023-03-22T00:23:50.982Z,-1.28
2023-03-22T00:25:56.725Z,-1.31
2023-03-22T00:28:02.489Z,-1.26
2023-03-22T00:30:08.295Z,-1.22
2023-03-22T00:32:13.843Z,-1.14
2023-03-22T00:34:19.816Z,-1.03
2023-03-22T00:36:25.119Z,-1.1
2023-03-22T00:38:41.601Z,-1.14
2023-03-22T00:40:49.023Z,-1.16
2023-03-22T00:42:54.743Z,-1.14
2023-03-22T00:45:00.212Z,-1.15
2023-03-22T00:47:05.724Z,-1.27
2023-03-22T00:49:11.299Z,-1.35
2023-03-22T00:51:16.966Z,-1.34
2023-03-22T00:53:22.875Z,-1.35
2023-03-22T00:55:28.522Z,-1.32
2023-03-22T00:57:34.250Z,-1.16
2023-03-22T00:59:39.677Z,-1.06
2023-03-22T01:01:45.500Z,-1.02
2023-03-22T01:03:51.371Z,-1.03
2023-03-22T01:05:57.382Z,-1.07
2023-03-22T01:08:03.011Z,-1.11
2023-03-22T01:10:08.921Z,-1.15
2023-03-22T01:12:14.525Z,-1.25
2023-03-22T01:14:22.809Z,-1.37
2023-03-22T01:16:31.166Z,-1.33
2023-03-22T01:18:36.746Z,-1.33
2023-03-22T01:20:42.987Z,-1.3
2023-03-22T01:22:48.593Z,-1.27
2023-03-22T01:24:54.015Z,-1.22
2023-03-22T01:27:01.596Z,-1.23
2023-03-22T01:29:11.280Z,-1.28
2023-03-22T01:31:16.856Z,-1.37
2023-03-22T01:33:22.634Z,-1.42
2023-03-22T01:35:28.270Z,-1.44
2023-03-22T01:37:34.195Z,-1.48
2023-03-22T01:39:41.341Z,-1.42
2023-03-22T01:41:48.005Z,-1.35
2023-03-22T01:43:53.763Z,-1.28
2023-03-22T01:45:59.539Z,-1.26
2023-03-22T01:48:05.430Z,-1.24
2023-03-22T01:50:11.205Z,-1.33
2023-03-22T01:52:16.832Z,-1.45
2023-03-22T01:54:22.558Z,-1.59
2023-03-22T01:56:27.956Z,-1.63
2023-03-22T01:58:33.797Z,-1.6
2023-03-22T02:00:39.869Z,-1.54
2023-03-22T02:02:46.001Z,-1.62
2023-03-22T02:04:54.564Z,-1.77
2023-03-22T02:07:00.347Z,-1.84
2023-03-22T02:09:05.549Z,-1.87
2023-03-22T02:11:11.447Z,-1.75
2023-03-22T02:13:17.360Z,-1.62
2023-03-22T02:15:23.019Z,-1.49
2023-03-22T02:17:31.728Z,-1.39
2023-03-22T02:19:37.228Z,-1.36
2023-03-22T02:21:42.920Z,-1.4
2023-03-22T02:23:51.400Z,-1.42
2023-03-22T02:25:59.223Z,-1.41
2023-03-22T02:28:04.599Z,-1.5
2023-03-22T02:30:10.640Z,-1.59
2023-03-22T02:32:19.494Z,-1.68
2023-03-22T02:34:27.120Z,-1.73
2023-03-22T02:36:32.639Z,-1.76
2023-03-22T02:38:38.072Z,-1.81
2023-03-22T02:40:43.455Z,-1.87
2023-03-22T02:42:49.092Z,-1.96
2023-03-22T02:44:54.815Z,-1.93
2023-03-22T02:47:00.357Z,-1.94
2023-03-22T02:49:05.797Z,-1.96
2023-03-22T02:51:11.171Z,-1.93
2023-03-22T02:53:16.674Z,-1.87
2023-03-22T02:55:22.277Z,-1.72
2023-03-22T02:57:27.960Z,-1.6
2023-03-22T02:59:33.344Z,-1.56
2023-03-22T03:01:38.976Z,-1.57
2023-03-22T03:03:44.992Z,-1.58
2023-03-22T03:05:50.785Z,-1.47
2023-03-22T03:07:56.315Z,-1.45
2023-03-22T03:10:01.825Z,-1.53
2023-03-22T03:12:07.384Z,-1.61
2023-03-22T03:14:12.772Z,-1.69
2023-03-22T03:16:20.347Z,-1.64
2023-03-22T03:18:26.210Z,-1.54
2023-03-22T03:20:32.005Z,-1.5
2023-03-22T03:22:37.763Z,-1.49
2023-03-22T03:24:43.190Z,-1.52
2023-03-22T03:26:48.668Z,-1.49
2023-03-22T03:28:54.184Z,-1.5
2023-03-22T03:30:59.596Z,-1.52
2023-03-22T03:33:05.160Z,-1.56
2023-03-22T03:35:10.685Z,-1.58
2023-03-22T03:37:16.244Z,-1.62
2023-03-22T03:39:21.667Z,-1.62
2023-03-22T03:41:27.267Z,-1.63
2023-03-22T03:43:32.998Z,-1.62
2023-03-22T03:45:38.593Z,-1.6
2023-03-22T03:47:44.614Z,-1.62
2023-03-22T03:49:50.316Z,-1.64
2023-03-22T03:51:55.867Z,-1.59
2023-03-22T03:54:01.340Z,-1.59
2023-03-22T03:56:06.905Z,-1.52
2023-03-22T03:58:12.300Z,-1.49
2023-03-22T04:00:17.836Z,-1.41
2023-03-22T04:02:23.300Z,-1.29
2023-03-22T04:04:29.313Z,-1.24
2023-03-22T04:06:35.144Z,-1.2
2023-03-22T04:08:40.599Z,-1.18
2023-03-22T04:10:47.370Z,-1.19
2023-03-22T04:12:53.054Z,-1.22
2023-03-22T04:14:59.687Z,-1.18
2023-03-22T04:17:05.341Z,-1.18
2023-03-22T04:19:10.779Z,-1.15
2023-03-22T04:21:16.220Z,-1.11
2023-03-22T04:23:21.712Z,-1.15
2023-03-22T04:25:27.267Z,-1.21
2023-03-22T04:27:33.077Z,-1.25
2023-03-22T04:29:38.640Z,-1.35
2023-03-22T04:31:44.220Z,-1.45
2023-03-22T04:33:49.677Z,-1.5
2023-03-22T04:38:15.031Z,-1.54
2023-03-22T04:40:22.716Z,-1.56
2023-03-22T04:42:28.154Z,-1.52
2023-03-22T04:44:33.624Z,-1.48
2023-03-22T04:46:39.130Z,-1.5
2023-03-22T04:48:45.008Z,-1.53
2023-03-22T04:50:50.448Z,-1.52
2023-03-22T04:52:55.806Z,-1.52
2023-03-22T04:55:01.351Z,-1.54
2023-03-22T04:57:06.841Z,-1.5
2023-03-22T04:59:12.548Z,-1.45
2023-03-22T05:01:18.055Z,-1.39
2023-03-22T05:03:23.817Z,-1.37
2023-03-22T05:05:32.869Z,-1.36
2023-03-22T05:07:38.629Z,-1.34
2023-03-22T05:09:44.088Z,-1.3
2023-03-22T05:11:49.823Z,-1.24
2023-03-22T05:13:55.200Z,-1.22
2023-03-22T05:16:01.135Z,-1.17
2023-03-22T05:18:07.156Z,-1.17
2023-03-22T05:20:12.812Z,-1.1
2023-03-22T05:22:18.332Z,-1.02
2023-03-22T05:24:24.453Z,-0.89
2023-03-22T05:26:30.165Z,-0.79
2023-03-22T05:28:35.499Z,-0.71
2023-03-22T05:30:42.400Z,-0.62
2023-03-22T05:32:48.125Z,-0.59
2023-03-22T05:34:53.576Z,-0.53
2023-03-22T05:36:59.582Z,-0.45
2023-03-22T05:39:06.470Z,-0.33
2023-03-22T05:41:12.007Z,-0.26
2023-03-22T05:43:17.586Z,-0.08
2023-03-22T05:45:23.238Z,0.14
2023-03-22T05:47:29.830Z,0.3
2023-03-22T05:49:35.055Z,0.33
2023-03-22T05:51:40.395Z,0.37
2023-03-22T05:53:46.487Z,0.41
2023-03-22T05:55:51.962Z,0.49
2023-03-22T05:57:57.333Z,0.54
2023-03-22T06:00:02.911Z,0.7
2023-03-22T06:02:08.508Z,0.83
2023-03-22T06:04:13.987Z,0.94
2023-03-22T06:06:19.449Z,1.03
2023-03-22T06:08:26.583Z,1.05
2023-03-22T06:10:32.083Z,1.12
2023-03-22T06:12:37.600Z,1.17
2023-03-22T06:14:43.307Z,1.36
2023-03-22T06:16:48.732Z,1.53
2023-03-22T06:18:54.330Z,1.75
2023-03-22T06:20:59.698Z,1.91
2023-03-22T06:23:05.123Z,1.94
2023-03-22T06:25:10.922Z,2.06
2023-03-22T06:27:16.451Z,2.21
2023-03-22T06:29:22.115Z,2.4
2023-03-22T06:31:28.036Z,2.67
2023-03-22T06:33:33.886Z,2.8
2023-03-22T06:35:39.534Z,3.18
2023-03-22T06:37:45.181Z,3.32
2023-03-22T06:39:50.828Z,3.54
2023-03-22T06:41:56.454Z,4.01
2023-03-22T06:44:01.840Z,4.11
2023-03-22T06:48:28.366Z,4.65
2023-03-22T06:50:34.004Z,4.77
2023-03-22T06:52:40.712Z,4.88
2023-03-22T06:54:46.314Z,5.22
2023-03-22T06:56:53.046Z,5.53
2023-03-22T06:58:58.416Z,5.7
2023-03-22T07:01:03.750Z,5.53
2023-03-22T07:03:09.355Z,5.64
2023-03-22T07:05:16.991Z,5.6
2023-03-22T07:07:22.290Z,5.91
2023-03-22T07:09:27.930Z,5.9
2023-03-22T07:11:34.022Z,6.08
2023-03-22T07:13:40.034Z,6.06
2023-03-22T07:15:45.579Z,5.86
2023-03-22T07:17:51.420Z,5.95
2023-03-22T07:19:56.999Z,5.99
2023-03-22T07:22:02.462Z,6.25
2023-03-22T07:24:08.007Z,6.31
2023-03-22T07:26:13.577Z,6.35
2023-03-22T07:28:19.526Z,6.51
2023-03-22T07:30:25.058Z,6.73
2023-03-22T07:32:30.647Z,7.14
2023-03-22T07:34:36.348Z,7.25
2023-03-22T07:36:42.016Z,7.59
2023-03-22T07:38:47.305Z,7.75
2023-03-22T07:40:52.633Z,7.61
2023-03-22T07:42:58.294Z,7.84
2023-03-22T07:45:04.955Z,7.86
2023-03-22T07:47:10.617Z,8.35
2023-03-22T07:49:16.367Z,8.54
2023-03-22T07:51:21.738Z,8.62
2023-03-22T07:53:27.266Z,9.02
2023-03-22T07:55:32.974Z,9.38
2023-03-22T07:57:38.532Z,9.18
2023-03-22T07:59:44.111Z,9.48
2023-03-22T08:01:49.767Z,9.38
2023-03-22T08:03:55.753Z,9.47
2023-03-22T08:06:01.130Z,9.63
2023-03-22T08:08:09.510Z,10.21
2023-03-22T08:10:16.880Z,10.11
2023-03-22T08:12:22.814Z,10.34
2023-03-22T08:14:36.754Z,10.39
2023-03-22T08:17:49.585Z,10.87
2023-03-22T08:51:50.644Z,10.93
2023-03-22T08:58:01.862Z,10.73
2023-03-22T09:28:02.406Z,10.86
2023-03-22T09:30:14.393Z,10.69
2023-03-22T10:07:19.820Z,10.95
2023-03-22T10:09:26.738Z,10.99
2023-03-22T10:11:32.291Z,11.01
2023-03-22T10:13:37.877Z,10.99
2023-03-22T10:15:44.926Z,11.02
2023-03-22T10:17:51.757Z,11.15
2023-03-22T10:19:57.593Z,11.34
2023-03-22T10:22:03.579Z,11.33
2023-03-22T10:24:09.463Z,11.68
2023-03-22T10:26:15.091Z,12.19
2023-03-22T10:28:20.671Z,12.32
2023-03-22T10:30:26.532Z,12.58
2023-03-22T10:32:32.044Z,12.48
2023-03-22T10:34:47.024Z,12.6
2023-03-22T10:36:52.518Z,12.37
2023-03-22T10:38:58.090Z,12.19
2023-03-22T10:41:04.133Z,12.11
2023-03-22T10:43:11.228Z,12.37
2023-03-22T10:45:16.828Z,12.38
2023-03-22T10:47:22.990Z,12.25
2023-03-22T10:49:28.762Z,12.32
2023-03-22T10:51:34.234Z,11.94
2023-03-22T10:53:39.890Z,11.98
2023-03-22T10:55:45.582Z,12.25
2023-03-22T10:57:51.630Z,12.39
2023-03-22T10:59:57.464Z,12.6
2023-03-22T11:02:03.857Z,12.15
2023-03-22T11:04:09.987Z,12.01
2023-03-22T11:06:15.701Z,12.03
2023-03-22T11:08:22.013Z,11.94
2023-03-22T11:10:27.624Z,11.92
2023-03-22T11:12:33.386Z,11.98
2023-03-22T11:14:42.005Z,11.9
2023-03-22T11:16:47.535Z,11.84
2023-03-22T11:18:54.672Z,12.12
2023-03-22T11:21:03.335Z,12.2
2023-03-22T11:23:09.417Z,12.33
2023-03-22T11:25:16.338Z,12.57
2023-03-22T11:27:22.308Z,12.5
2023-03-22T11:29:27.759Z,12.66
2023-03-22T11:31:33.173Z,12.65
2023-03-22T11:33:39.388Z,12.58
2023-03-22T11:35:45.240Z,12.5
2023-03-22T11:37:51.127Z,12.39
2023-03-22T11:39:58.766Z,12.49
2023-03-22T11:42:04.204Z,12.67
2023-03-22T11:44:09.929Z,12.5
2023-03-22T11:46:16.097Z,12.49
2023-03-22T11:48:22.038Z,12.67
2023-03-22T11:50:28.121Z,12.65
2023-03-22T11:52:33.742Z,12.54
2023-03-22T11:54:39.089Z,12.73
2023-03-22T11:56:44.583Z,12.79
2023-03-22T11:58:50.850Z,12.7
2023-03-22T12:00:56.449Z,12.55
2023-03-22T12:03:02.271Z,12.6
2023-03-22T12:05:08.390Z,12.59
2023-03-22T12:07:14.829Z,12.93
2023-03-22T12:09:20.562Z,13.06
2023-03-22T12:11:26.125Z,12.75
2023-03-22T12:13:31.637Z,12.87
2023-03-22T12:15:37.173Z,12.97
2023-03-22T12:17:46.432Z,13.02
2023-03-22T12:19:53.040Z,12.86
2023-03-22T12:21:58.600Z,12.71
2023-03-22T12:24:04.134Z,12.88
2023-03-22T12:26:09.952Z,13.17
2023-03-22T12:28:15.846Z,13.13
2023-03-22T12:30:21.319Z,13.2
2023-03-22T12:32:27.294Z,13.48
2023-03-22T12:34:32.845Z,13.63
2023-03-22T12:36:38.445Z,13.61
2023-03-22T12:38:45.088Z,13.63
2023-03-22T12:40:50.328Z,13.67
2023-03-22T12:42:58.355Z,13.41
2023-03-22T12:45:05.913Z,13.14
2023-03-22T12:47:11.662Z,13.05
2023-03-22T12:49:17.235Z,13.34
2023-03-22T12:51:22.792Z,13.32
2023-03-22T12:53:28.375Z,13.27
2023-03-22T12:55:34.162Z,13.26
2023-03-22T12:57:39.903Z,13.21
2023-03-22T12:59:46.140Z,13.46
2023-03-22T13:01:52.185Z,13.65
2023-03-22T13:03:58.334Z,13.78
2023-03-22T13:06:04.874Z,13.78
2023-03-22T13:08:10.734Z,13.64
2023-03-22T13:10:16.787Z,13.58
2023-03-22T13:12:22.601Z,13.18
2023-03-22T13:14:28.430Z,13.21
2023-03-22T13:16:33.942Z,13.09
2023-03-22T13:18:40.173Z,13.15
2023-03-22T13:20:46.333Z,13.05
2023-03-22T13:22:51.986Z,13.13
2023-03-22T13:24:57.632Z,13.13
2023-03-22T13:27:03.448Z,13.23
2023-03-22T13:29:09.023Z,13.2
2023-03-22T13:31:14.448Z,13.32
2023-03-22T13:33:20.197Z,13.24
2023-03-22T13:35:26.364Z,13.32
2023-03-22T13:37:33.036Z,13.39
2023-03-22T13:39:38.588Z,13.32
2023-03-22T13:41:44.035Z,13.41
2023-03-22T13:43:49.533Z,13.66
2023-03-22T13:45:54.803Z,13.7
2023-03-22T13:48:00.693Z,13.78
2023-03-22T13:50:08.906Z,13.77
2023-03-22T13:52:14.523Z,13.77
2023-03-22T13:54:20.697Z,13.67
2023-03-22T13:56:26.625Z,13.34
2023-03-22T13:58:32.608Z,13.24
2023-03-22T14:00:38.347Z,13.14
2023-03-22T14:02:45.679Z,13.02
2023-03-22T14:04:52.343Z,13.07
2023-03-22T14:06:58.216Z,13.13
2023-03-22T14:09:04.429Z,13.12
2023-03-22T14:11:10.797Z,13.13
2023-03-22T14:13:17.287Z,13.09
2023-03-22T14:15:23.427Z,13.18
2023-03-22T14:17:30.228Z,13.23
2023-03-22T14:19:36.341Z,13.36
2023-03-22T14:21:42.488Z,13.39
2023-03-22T14:46:00.337Z,13.62
2023-03-22T14:48:08.328Z,13.69
2023-03-22T14:50:16.526Z,13.56
2023-03-22T14:52:24.284Z,13.63
2023-03-22T14:54:31.225Z,13.64
2023-03-22T14:56:37.897Z,13.73
2023-03-22T14:58:44.996Z,13.78
2023-03-22T15:00:51.552Z,13.79
2023-03-22T15:02:58.161Z,13.86
2023-03-22T15:05:05.573Z,13.79
2023-03-22T15:07:11.988Z,13.86
2023-03-22T15:09:18.395Z,13.83
2023-03-22T15:11:25.117Z,13.84
2023-03-22T15:13:31.787Z,13.69
2023-03-22T15:15:38.994Z,13.72
2023-03-22T15:17:46.686Z,13.68
2023-03-22T15:19:53.995Z,13.65
2023-03-22T15:22:02.680Z,13.49
2023-03-22T15:24:09.768Z,13.45
2023-03-22T15:26:17.621Z,13.4
2023-03-22T15:28:24.934Z,13.41
2023-03-22T15:30:31.330Z,13.33
2023-03-22T15:32:38.787Z,13.34
2023-03-22T15:34:46.090Z,13.29
2023-03-22T15:36:54.298Z,13.28
2023-03-22T15:39:01.418Z,13.26
2023-03-22T15:41:08.948Z,13.14
2023-03-22T15:43:16.952Z,13.06
2023-03-22T15:45:24.495Z,12.92
2023-03-22T15:47:32.212Z,12.8
2023-03-22T15:49:38.933Z,12.7
2023-03-22T15:51:46.134Z,12.58
2023-03-22T15:53:53.485Z,12.52
2023-03-22T15:56:00.995Z,12.47
2023-03-22T15:58:08.102Z,12.37
2023-03-22T16:00:15.517Z,12.28
2023-03-22T16:02:23.389Z,12.21
2023-03-22T16:04:30.951Z,12.07
2023-03-22T16:06:38.009Z,11.99
2023-03-22T16:08:45.445Z,11.91
2023-03-22T16:10:52.353Z,11.86
2023-03-22T16:12:59.722Z,11.75
2023-03-22T16:15:07.705Z,11.66
2023-03-22T16:17:15.549Z,11.56
2023-03-22T16:19:22.440Z,11.44
2023-03-22T16:21:28.609Z,11.33
2023-03-22T16:23:35.993Z,11.24
2023-03-22T16:25:43.851Z,11.15
2023-03-22T16:27:51.665Z,11.03
2023-03-22T16:29:58.882Z,10.98
2023-03-22T16:32:06.013Z,10.9
2023-03-22T16:34:13.711Z,10.81
2023-03-22T16:36:20.948Z,10.72
2023-03-22T16:38:28.211Z,10.63
2023-03-22T16:40:35.284Z,10.54
2023-03-22T16:42:42.957Z,10.46
2023-03-22T16:44:50.784Z,10.42
2023-03-22T16:47:01.185Z,10.37
2023-03-22T16:49:08.047Z,10.34
2023-03-22T16:51:16.354Z,10.3
2023-03-22T16:53:25.084Z,10.21
2023-03-22T16:55:44.459Z,10.13
2023-03-22T16:57:52.056Z,10.04
2023-03-22T16:59:59.722Z,9.97
2023-03-22T17:02:06.352Z,9.85
2023-03-22T17:04:13.960Z,9.77
2023-03-22T17:06:23.589Z,9.63
2023-03-22T17:08:30.929Z,9.51
2023-03-22T17:10:37.976Z,9.4
2023-03-22T17:12:45.607Z,9.32
2023-03-22T17:14:56.179Z,9.26
2023-03-22T17:17:03.101Z,9.2
2023-03-22T17:19:10.517Z,9.13
2023-03-22T17:21:18.055Z,9.04
2023-03-22T17:23:25.864Z,8.98
2023-03-22T17:25:33.719Z,8.99
2023-03-22T17:27:40.499Z,9
2023-03-22T17:29:47.694Z,8.94
2023-03-22T17:31:57.955Z,8.89
2023-03-22T17:34:52.258Z,8.79
2023-03-22T17:37:01.110Z,8.73
2023-03-22T17:39:27.899Z,8.68
2023-03-22T17:42:53.154Z,8.56
2023-03-22T17:45:00.664Z,8.46
2023-03-22T17:49:46.123Z,8.39
2023-03-22T17:51:53.627Z,8.34
2023-03-22T18:00:27.943Z,8.31
2023-03-22T18:02:39.770Z,8.33
2023-03-22T18:04:49.303Z,8.31
2023-03-22T18:07:02.496Z,8.3
2023-03-22T18:09:14.628Z,8.35
2023-03-22T18:11:25.370Z,8.46
2023-03-22T18:13:34.395Z,8.51
2023-03-22T18:15:46.878Z,8.53
2023-03-22T18:17:57.877Z,8.64
2023-03-22T18:23:04.219Z,8.74
2023-03-22T18:25:12.515Z,8.72
2023-03-22T18:27:19.993Z,8.74
2023-03-22T18:29:32.056Z,8.71
2023-03-22T18:31:41.299Z,8.71
2023-03-22T18:33:49.399Z,8.68
2023-03-22T18:35:59.516Z,8.63
2023-03-22T18:38:10.881Z,8.63
2023-03-22T18:44:35.938Z,8.57
2023-03-22T18:46:51.084Z,8.55
2023-03-22T18:49:05.083Z,8.55
2023-03-22T18:51:14.646Z,8.57
2023-03-22T18:53:29.574Z,8.55
2023-03-22T18:55:43.819Z,8.55
2023-03-22T18:58:14.404Z,8.6
2023-03-22T19:00:24.630Z,8.58
2023-03-22T19:02:39.618Z,8.66
2023-03-22T19:04:51.301Z,8.67
2023-03-22T19:07:04.825Z,8.67
2023-03-22T19:10:01.606Z,8.68
2023-03-22T19:12:13.536Z,8.67
2023-03-22T19:15:05.235Z,8.68
2023-03-22T19:17:54.822Z,8.64
2023-03-22T19:20:07.242Z,8.61
2023-03-22T19:22:23.854Z,8.59
2023-03-22T19:24:37.510Z,8.54
2023-03-22T19:26:55.793Z,8.49
2023-03-22T19:29:32.450Z,8.45
2023-03-22T19:31:42.656Z,8.41
2023-03-22T19:33:56.323Z,8.39
2023-03-22T19:36:09.073Z,8.39
2023-03-22T19:38:20.484Z,8.36
2023-03-22T19:43:52.988Z,8.23
2023-03-22T19:46:13.961Z,8.18
2023-03-22T19:48:31.205Z,8.16
2023-03-22T19:50:54.409Z,8.16
2023-03-22T19:53:31.576Z,8.1
2023-03-22T19:56:49.129Z,7.99
2023-03-22T19:59:12.042Z,7.87
2023-03-22T20:01:26.320Z,7.75
2023-03-22T20:03:38.718Z,7.71
2023-03-22T20:05:51.630Z,7.69
2023-03-22T20:08:04.292Z,7.63
2023-03-22T20:10:20.239Z,7.57
2023-03-22T20:12:33.034Z,7.49
2023-03-22T20:14:43.462Z,7.44
2023-03-22T20:17:04.541Z,7.35
2023-03-22T20:19:29.415Z,7.26
2023-03-22T20:21:40.642Z,7.26
2023-03-22T20:23:51.850Z,7.19
2023-03-22T20:26:07.453Z,7.13
2023-03-22T20:28:18.949Z,7.07
2023-03-22T20:32:56.079Z,6.94
2023-03-22T20:35:08.015Z,6.83
2023-03-22T20:37:17.471Z,6.72
2023-03-22T20:39:39.595Z,6.66
2023-03-22T20:42:00.614Z,6.61
2023-03-22T20:44:12.277Z,6.58
2023-03-22T20:46:21.876Z,6.52
2023-03-22T20:48:37.446Z,6.48
2023-03-22T20:50:50.571Z,6.41
2023-03-22T20:53:00.574Z,6.35
2023-03-22T20:55:12.092Z,6.28
2023-03-22T20:57:22.843Z,6.25
2023-03-22T20:59:35.300Z,6.16
2023-03-22T21:01:45.830Z,6.08
2023-03-22T21:03:57.842Z,5.98
2023-03-22T21:06:05.480Z,5.95
2023-03-22T21:08:14.401Z,5.88
2023-03-22T21:10:21.959Z,5.88
2023-03-22T21:12:29.445Z,5.84
2023-03-22T21:14:37.984Z,5.82
2023-03-22T21:16:45.210Z,5.75
2023-03-22T21:18:52.281Z,5.78
2023-03-22T21:20:59.543Z,5.81
2023-03-22T21:23:06.558Z,5.78
2023-03-22T21:25:15.286Z,5.72
2023-03-22T21:27:24.508Z,5.72
2023-03-22T21:29:32.530Z,5.7
2023-03-22T21:31:39.750Z,5.73
2023-03-22T21:33:46.304Z,5.71
2023-03-22T21:35:53.835Z,5.75
2023-03-22T21:38:01.523Z,5.79
2023-03-22T21:40:08.948Z,5.88
2023-03-22T21:42:16.450Z,5.85
2023-03-22T21:44:22.852Z,5.8
2023-03-22T21:46:29.379Z,5.81
2023-03-22T21:48:36.373Z,5.8
2023-03-22T21:50:43.531Z,5.81
2023-03-22T21:52:51.284Z,5.84
2023-03-22T21:54:58.270Z,5.92
2023-03-22T21:57:04.941Z,5.92
2023-03-22T21:59:12.550Z,5.99
2023-03-22T22:01:19.943Z,5.97
2023-03-22T22:03:26.849Z,5.96
2023-03-22T22:05:33.734Z,5.91
2023-03-22T22:07:40.932Z,5.97
2023-03-22T22:09:48.539Z,5.95
2023-03-22T22:11:55.533Z,5.95
2023-03-22T22:14:02.341Z,5.95
2023-03-22T22:16:09.062Z,5.92
2023-03-22T22:18:15.392Z,5.84
2023-03-22T22:20:22.264Z,5.78
2023-03-22T22:22:29.401Z,5.78
2023-03-22T22:24:36.510Z,5.79
2023-03-22T22:26:44.783Z,5.72
2023-03-22T22:28:51.948Z,5.74
2023-03-22T22:30:58.440Z,5.7
2023-03-22T22:33:05.127Z,5.69
2023-03-22T22:35:11.751Z,5.68
2023-03-22T22:37:18.116Z,5.65
2023-03-22T22:39:25.481Z,5.69
2023-03-22T22:41:31.826Z,5.79
2023-03-22T22:43:38.670Z,5.76
2023-03-22T22:45:45.839Z,5.76
2023-03-22T22:47:52.578Z,5.88
2023-03-22T22:49:59.381Z,5.78
2023-03-22T22:52:05.963Z,5.75
2023-03-22T22:54:12.713Z,5.64
2023-03-22T22:56:19.294Z,5.6
2023-03-22T22:58:26.212Z,5.55
2023-03-22T23:00:33.561Z,5.59
2023-03-22T23:02:40.388Z,5.6
2023-03-22T23:04:48.516Z,5.63
2023-03-22T23:06:55.334Z,5.68
2023-03-22T23:09:02.901Z,5.76
2023-03-22T23:11:09.497Z,5.72
2023-03-22T23:13:16.489Z,5.7
2023-03-22T23:15:27.175Z,5.65
2023-03-22T23:17:34.091Z,5.71
2023-03-22T23:19:40.801Z,5.61
2023-03-22T23:21:47.473Z,5.59
2023-03-22T23:23:53.749Z,5.55
2023-03-22T23:26:00.800Z,5.51
2023-03-22T23:28:07.539Z,5.61
2023-03-22T23:30:14.890Z,5.63
2023-03-22T23:32:21.454Z,5.64
2023-03-22T23:34:27.832Z,5.64
2023-03-22T23:36:34.547Z,5.68
2023-03-22T23:38:40.870Z,5.72
2023-03-22T23:40:47.768Z,5.72
2023-03-22T23:42:54.554Z,5.79
2023-03-22T23:45:00.891Z,5.8
2023-03-22T23:47:08.797Z,5.84
2023-03-22T23:49:16.288Z,5.81
2023-03-22T23:51:23.949Z,5.81
2023-03-22T23:53:30.730Z,5.83
2023-03-22T23:55:37.631Z,5.83
2023-03-22T23:57:44.851Z,5.85
2023-03-22T23:59:52.567Z,5.83
